createdAt,value
2018-08-24T00:00:48.275Z,25.02
2018-08-24T00:03:15.199Z,25.03
2018-08-24T00:05:42.097Z,25.03
2018-08-24T00:08:08.978Z,25.02
2018-08-24T00:10:35.902Z,25.02
2018-08-24T00:13:02.780Z,25.03
2018-08-24T00:15:29.674Z,25.02
2018-08-24T00:17:56.609Z,25.02
2018-08-24T00:20:23.548Z,25.02
2018-08-24T00:22:50.445Z,25.02
2018-08-24T00:25:17.341Z,25.02
2018-08-24T00:27:44.273Z,25.03
2018-08-24T00:30:11.169Z,25.02
2018-08-24T00:32:38.058Z,25.03
2018-08-24T00:35:04.958Z,25.03
2018-08-24T00:37:31.874Z,25.03
2018-08-24T00:39:58.801Z,25.03
2018-08-24T00:42:25.700Z,25.01
2018-08-24T00:44:52.602Z,25.02
2018-08-24T00:47:19.557Z,25.04
2018-08-24T00:49:46.451Z,25.02
2018-08-24T00:52:13.361Z,25.03
2018-08-24T00:54:40.264Z,25.02
2018-08-24T00:57:07.179Z,25.02
2018-08-24T00:59:34.128Z,25.03
2018-08-24T01:02:01.074Z,25.02
2018-08-24T01:04:35.282Z,25.02
2018-08-24T01:07:06.466Z,25.02
2018-08-24T01:09:33.362Z,25.02
2018-08-24T01:12:05.575Z,25.04
2018-08-24T01:14:32.497Z,25.03
2018-08-24T01:17:04.707Z,25.03
2018-08-24T01:19:31.604Z,25.03
2018-08-24T01:21:58.503Z,25.02
2018-08-24T01:24:29.912Z,25.02
2018-08-24T01:27:03.786Z,25.03
2018-08-24T01:29:30.721Z,25.03
2018-08-24T01:31:57.609Z,25.02
2018-08-24T01:34:24.532Z,25.03
2018-08-24T01:36:51.425Z,25.03
2018-08-24T01:39:18.317Z,25.03
2018-08-24T01:41:45.205Z,25.02
2018-08-24T01:44:12.108Z,25.03
2018-08-24T01:46:39.001Z,25.03
2018-08-24T01:49:05.918Z,25.03
2018-08-24T01:51:32.815Z,25.02
2018-08-24T01:53:59.702Z,25.02
2018-08-24T01:56:26.641Z,25.02
2018-08-24T01:58:53.595Z,25.03
2018-08-24T02:01:20.464Z,25.03
2018-08-24T02:03:47.365Z,25.02
2018-08-24T02:06:14.262Z,25.03
2018-08-24T02:08:41.183Z,25.02
2018-08-24T02:11:13.372Z,25.02
2018-08-24T02:13:45.531Z,24.99
2018-08-24T02:16:12.439Z,24.99
2018-08-24T02:18:44.753Z,24.99
2018-08-24T02:21:16.896Z,25.00
2018-08-24T02:23:43.816Z,24.99
2018-08-24T02:26:10.715Z,25.00
2018-08-24T02:28:37.624Z,25.00
2018-08-24T02:31:04.593Z,24.99
2018-08-24T02:33:35.725Z,25.00
2018-08-24T02:36:02.627Z,25.00
2018-08-24T02:38:29.520Z,25.01
2018-08-24T02:40:56.416Z,24.99
2018-08-24T02:43:23.331Z,25.00
2018-08-24T02:45:50.240Z,25.00
2018-08-24T02:48:17.854Z,25.01
2018-08-24T02:50:44.767Z,25.01
2018-08-24T02:53:11.661Z,25.01
2018-08-24T02:55:38.558Z,25.00
2018-08-24T02:58:05.483Z,25.01
2018-08-24T03:00:32.384Z,25.01
2018-08-24T03:02:59.285Z,25.01
2018-08-24T03:05:26.301Z,25.01
2018-08-24T03:07:53.130Z,25.00
2018-08-24T03:10:20.031Z,25.01
2018-08-24T03:12:46.973Z,25.01
2018-08-24T03:15:13.890Z,25.00
2018-08-24T03:17:46.177Z,25.01
2018-08-24T03:20:13.110Z,25.01
2018-08-24T03:22:40.020Z,25.01
2018-08-24T03:25:06.937Z,25.02
2018-08-24T03:27:33.846Z,25.01
2018-08-24T03:30:00.759Z,25.01
2018-08-24T03:32:27.673Z,25.01
2018-08-24T03:34:54.649Z,25.01
2018-08-24T03:37:21.554Z,25.01
2018-08-24T03:39:48.451Z,25.01
2018-08-24T03:42:15.411Z,25.01
2018-08-24T03:44:42.350Z,25.00
2018-08-24T03:47:09.258Z,25.01
2018-08-24T03:49:36.194Z,25.01
2018-08-24T03:52:03.085Z,25.01
2018-08-24T03:54:29.995Z,25.02
2018-08-24T03:56:58.780Z,25.01
2018-08-24T03:59:26.114Z,25.01
2018-08-24T04:01:54.199Z,25.01
2018-08-24T04:04:21.120Z,23.03
2018-08-24T04:06:48.297Z,21.89
2018-08-24T04:09:15.542Z,22.02
2018-08-24T04:11:42.474Z,22.20
2018-08-24T04:14:09.428Z,22.47
2018-08-24T04:16:41.762Z,22.35
2018-08-24T04:19:12.962Z,22.31
2018-08-24T04:21:39.871Z,22.29
2018-08-24T04:24:06.847Z,22.21
2018-08-24T04:26:33.757Z,22.21
2018-08-24T04:29:00.644Z,22.22
2018-08-24T04:31:27.561Z,22.19
2018-08-24T04:33:54.444Z,22.25
2018-08-24T04:36:21.342Z,21.55
2018-08-24T04:38:48.228Z,21.87
2018-08-24T04:41:15.132Z,21.38
2018-08-24T04:43:42.068Z,21.26
2018-08-24T04:46:08.969Z,21.15
2018-08-24T04:48:35.922Z,21.26
2018-08-24T04:51:02.845Z,21.05
2018-08-24T04:53:29.740Z,20.93
2018-08-24T04:55:56.673Z,20.80
2018-08-24T04:58:23.673Z,20.98
2018-08-24T05:00:50.543Z,21.19
2018-08-24T05:03:17.442Z,20.96
2018-08-24T05:05:44.417Z,21.20
2018-08-24T05:08:11.273Z,20.95
2018-08-24T05:10:38.167Z,21.04
2018-08-24T05:13:05.065Z,20.73
2018-08-24T05:15:32.288Z,20.64
2018-08-24T05:17:59.200Z,20.61
2018-08-24T05:20:26.292Z,20.58
2018-08-24T05:22:53.189Z,20.73
2018-08-24T05:25:20.084Z,20.63
2018-08-24T05:27:46.985Z,20.89
2018-08-24T05:30:13.876Z,20.73
2018-08-24T05:32:40.780Z,20.76
2018-08-24T05:35:07.677Z,20.68
2018-08-24T05:37:34.595Z,20.73
2018-08-24T05:40:01.544Z,20.90
2018-08-24T05:42:28.437Z,20.69
2018-08-24T05:44:55.358Z,20.70
2018-08-24T05:47:22.249Z,20.63
2018-08-24T05:49:49.153Z,20.91
2018-08-24T05:52:16.066Z,21.38
2018-08-24T05:54:42.993Z,21.56
2018-08-24T05:57:09.905Z,21.57
2018-08-24T05:59:36.810Z,21.61
2018-08-24T06:02:03.913Z,21.67
2018-08-24T06:04:30.818Z,21.81
2018-08-24T06:06:57.704Z,21.74
2018-08-24T06:09:24.599Z,21.77
2018-08-24T06:11:51.557Z,21.88
2018-08-24T06:14:18.457Z,21.90
2018-08-24T06:16:51.567Z,22.02
2018-08-24T06:19:18.530Z,22.05
2018-08-24T06:21:45.435Z,22.00
2018-08-24T06:24:12.329Z,21.95
2018-08-24T06:26:39.215Z,22.07
2018-08-24T06:29:06.123Z,22.42
2018-08-24T06:31:33.021Z,22.63
2018-08-24T06:33:59.908Z,22.78
2018-08-24T06:36:26.817Z,22.90
2018-08-24T06:38:53.745Z,22.99
2018-08-24T06:41:20.656Z,23.04
2018-08-24T06:43:47.552Z,23.12
2018-08-24T06:46:14.452Z,23.16
2018-08-24T06:48:41.372Z,23.19
2018-08-24T06:51:08.261Z,23.24
2018-08-24T06:53:35.445Z,23.28
2018-08-24T06:56:02.180Z,23.32
2018-08-24T06:58:29.091Z,23.34
2018-08-24T07:00:56.004Z,23.37
2018-08-24T07:03:22.893Z,23.41
2018-08-24T07:05:49.822Z,23.44
2018-08-24T07:08:16.717Z,23.47
2018-08-24T07:10:43.630Z,23.50
2018-08-24T07:13:10.562Z,23.51
2018-08-24T07:15:37.481Z,23.53
2018-08-24T07:18:04.404Z,23.56
2018-08-24T07:20:32.170Z,23.59
2018-08-24T07:22:59.114Z,23.61
2018-08-24T07:25:26.026Z,23.61
2018-08-24T07:27:53.033Z,23.63
2018-08-24T07:30:19.985Z,23.55
2018-08-24T07:32:46.890Z,23.67
2018-08-24T07:35:14.006Z,23.69
2018-08-24T07:37:40.909Z,23.71
2018-08-24T07:40:08.055Z,23.73
2018-08-24T07:42:35.013Z,23.76
2018-08-24T07:45:07.771Z,23.77
2018-08-24T07:47:34.838Z,23.77
2018-08-24T07:50:01.732Z,23.78
2018-08-24T07:52:28.665Z,23.80
2018-08-24T07:54:55.548Z,23.81
2018-08-24T07:57:22.433Z,23.82
2018-08-24T07:59:49.344Z,23.83
2018-08-24T08:02:16.247Z,23.83
2018-08-24T08:04:43.177Z,23.85
2018-08-24T08:07:10.089Z,23.85
2018-08-24T08:09:37.075Z,23.87
2018-08-24T08:12:04.000Z,23.89
2018-08-24T08:14:31.264Z,23.89
2018-08-24T08:16:58.190Z,23.90
2018-08-24T08:19:25.119Z,23.93
2018-08-24T08:21:52.010Z,23.93
2018-08-24T08:24:18.961Z,23.93
2018-08-24T08:26:45.870Z,23.94
2018-08-24T08:29:16.982Z,23.95
2018-08-24T08:31:43.903Z,23.95
2018-08-24T08:34:10.837Z,23.96
2018-08-24T08:36:37.764Z,23.97
2018-08-24T08:39:05.078Z,23.98
2018-08-24T08:41:31.982Z,23.98
2018-08-24T08:43:58.918Z,23.98
2018-08-24T08:46:25.869Z,23.99
2018-08-24T08:48:52.760Z,23.99
2018-08-24T08:51:19.665Z,23.99
2018-08-24T08:53:46.677Z,24.01
2018-08-24T08:56:13.758Z,24.02
2018-08-24T08:58:40.666Z,24.04
2018-08-24T09:01:07.585Z,24.06
2018-08-24T09:03:34.542Z,24.08
2018-08-24T09:06:01.507Z,24.10
2018-08-24T09:08:28.442Z,24.12
2018-08-24T09:10:55.353Z,24.15
2018-08-24T09:13:22.290Z,24.15
2018-08-24T09:15:49.213Z,24.15
2018-08-24T09:18:21.575Z,24.15
2018-08-24T09:20:53.822Z,24.15
2018-08-24T09:23:25.981Z,24.15
2018-08-24T09:25:58.207Z,24.15
2018-08-24T09:28:37.255Z,24.16
2018-08-24T09:31:06.797Z,24.17
2018-08-24T09:33:33.706Z,24.17
2018-08-24T09:36:04.805Z,24.20
2018-08-24T09:38:31.706Z,24.20
2018-08-24T09:40:59.026Z,24.19
2018-08-24T09:43:31.342Z,24.21
2018-08-24T09:45:58.597Z,24.20
2018-08-24T09:48:31.077Z,24.20
2018-08-24T09:51:03.370Z,24.17
2018-08-24T09:53:35.568Z,24.15
2018-08-24T09:56:02.475Z,24.16
2018-08-24T09:58:29.633Z,24.13
2018-08-24T10:01:01.807Z,24.15
2018-08-24T10:03:34.062Z,24.13
2018-08-24T10:06:06.406Z,24.15
2018-08-24T10:08:38.682Z,24.15
2018-08-24T10:11:05.622Z,24.15
2018-08-24T10:13:32.526Z,24.13
2018-08-24T10:15:59.421Z,24.14
2018-08-24T10:18:26.327Z,24.15
2018-08-24T10:20:53.264Z,24.15
2018-08-24T10:23:20.158Z,24.15
2018-08-24T10:25:47.057Z,24.15
2018-08-24T10:28:13.986Z,24.16
2018-08-24T10:30:40.878Z,24.14
2018-08-24T10:33:07.811Z,24.16
2018-08-24T10:35:34.745Z,24.15
2018-08-24T10:38:01.635Z,24.15
2018-08-24T10:40:28.546Z,24.16
2018-08-24T10:42:55.446Z,24.18
2018-08-24T10:45:22.347Z,24.18
2018-08-24T10:47:49.287Z,24.18
2018-08-24T10:50:16.183Z,24.19
2018-08-24T10:52:43.097Z,24.21
2018-08-24T10:55:10.031Z,24.20
2018-08-24T10:57:36.938Z,24.22
2018-08-24T11:00:03.856Z,24.22
2018-08-24T11:02:30.957Z,24.22
2018-08-24T11:04:57.901Z,24.23
2018-08-24T11:07:24.895Z,24.24
2018-08-24T11:09:51.738Z,24.24
2018-08-24T11:12:18.658Z,24.25
2018-08-24T11:14:45.555Z,24.25
2018-08-24T11:17:12.463Z,24.27
2018-08-24T11:19:39.352Z,24.28
2018-08-24T11:22:06.258Z,24.28
2018-08-24T11:24:33.166Z,24.29
2018-08-24T11:27:00.162Z,24.29
2018-08-24T11:29:27.145Z,24.32
2018-08-24T11:31:53.975Z,24.33
2018-08-24T11:34:20.864Z,24.33
2018-08-24T11:36:47.757Z,24.37
2018-08-24T11:39:14.651Z,24.40
2018-08-24T11:41:41.584Z,24.40
2018-08-24T11:44:08.467Z,24.39
2018-08-24T11:46:35.370Z,24.39
2018-08-24T11:49:02.252Z,24.41
2018-08-24T11:51:29.140Z,24.40
2018-08-24T11:53:56.037Z,24.40
2018-08-24T11:56:22.937Z,24.41
2018-08-24T11:58:49.876Z,24.41
2018-08-24T12:01:16.797Z,24.41
2018-08-24T12:03:43.680Z,24.44
2018-08-24T12:06:10.597Z,24.46
2018-08-24T12:08:37.527Z,24.49
2018-08-24T12:11:04.445Z,24.50
2018-08-24T12:13:31.345Z,24.50
2018-08-24T12:15:58.252Z,24.49
2018-08-24T12:18:25.245Z,24.53
2018-08-24T12:20:52.144Z,24.58
2018-08-24T12:23:19.089Z,24.60
2018-08-24T12:25:45.986Z,24.61
2018-08-24T12:28:12.884Z,24.59
2018-08-24T12:30:39.786Z,24.60
2018-08-24T12:33:06.748Z,24.61
2018-08-24T12:35:33.632Z,24.59
2018-08-24T12:38:00.537Z,24.61
2018-08-24T12:40:27.515Z,24.64
2018-08-24T12:42:54.392Z,24.63
2018-08-24T12:45:21.279Z,24.60
2018-08-24T12:47:48.182Z,24.59
2018-08-24T12:50:15.089Z,24.60
2018-08-24T12:52:41.994Z,24.61
2018-08-24T12:55:08.906Z,24.60
2018-08-24T12:57:35.798Z,24.60
2018-08-24T13:00:02.771Z,24.59
2018-08-24T13:02:29.641Z,24.56
2018-08-24T13:04:56.745Z,24.55
2018-08-24T13:07:23.632Z,24.58
2018-08-24T13:09:50.543Z,24.55
2018-08-24T13:12:17.678Z,24.53
2018-08-24T13:14:44.568Z,24.53
2018-08-24T13:17:11.452Z,24.53
2018-08-24T13:19:38.351Z,24.54
2018-08-24T13:22:05.267Z,24.54
2018-08-24T13:24:32.165Z,24.54
2018-08-24T13:26:59.048Z,24.53
2018-08-24T13:29:25.949Z,24.53
2018-08-24T13:31:52.850Z,24.53
2018-08-24T13:34:19.773Z,24.54
2018-08-24T13:36:46.660Z,24.54
2018-08-24T13:39:13.578Z,24.53
2018-08-24T13:41:40.481Z,24.53
2018-08-24T13:44:07.387Z,24.54
2018-08-24T13:46:34.310Z,24.54
2018-08-24T13:49:01.277Z,24.54
2018-08-24T13:51:28.169Z,24.54
2018-08-24T13:53:55.093Z,24.54
2018-08-24T13:56:21.996Z,24.54
2018-08-24T13:58:48.889Z,24.55
2018-08-24T14:01:15.847Z,24.56
2018-08-24T14:03:42.781Z,24.56
2018-08-24T14:06:09.697Z,24.58
2018-08-24T14:08:36.628Z,24.57
2018-08-24T14:11:03.517Z,24.58
2018-08-24T14:13:30.498Z,24.61
2018-08-24T14:15:57.405Z,24.62
2018-08-24T14:18:24.311Z,24.65
2018-08-24T14:20:51.241Z,24.66
2018-08-24T14:23:18.157Z,24.66
2018-08-24T14:25:45.052Z,24.66
2018-08-24T14:28:11.964Z,24.66
2018-08-24T14:30:38.855Z,24.66
2018-08-24T14:33:05.748Z,24.65
2018-08-24T14:35:32.656Z,24.65
2018-08-24T14:37:59.545Z,24.67
2018-08-24T14:40:26.555Z,24.63
2018-08-24T14:42:53.449Z,24.65
2018-08-24T14:45:20.345Z,24.63
2018-08-24T14:47:47.237Z,24.63
2018-08-24T14:50:14.157Z,24.62
2018-08-24T14:52:41.063Z,24.62
2018-08-24T14:55:07.993Z,24.63
2018-08-24T14:57:34.956Z,24.63
2018-08-24T15:00:01.821Z,24.64
2018-08-24T15:02:28.709Z,24.66
2018-08-24T15:04:55.605Z,24.67
2018-08-24T15:07:22.497Z,24.69
2018-08-24T15:09:49.396Z,24.69
2018-08-24T15:12:16.313Z,24.70
2018-08-24T15:14:43.217Z,24.68
2018-08-24T15:17:10.153Z,24.69
2018-08-24T15:19:37.041Z,24.72
2018-08-24T15:22:04.008Z,24.71
2018-08-24T15:24:30.958Z,24.71
2018-08-24T15:26:57.853Z,24.69
2018-08-24T15:29:24.857Z,24.70
2018-08-24T15:31:51.712Z,24.69
2018-08-24T15:34:18.613Z,24.68
2018-08-24T15:36:45.543Z,24.68
2018-08-24T15:39:13.501Z,24.68
2018-08-24T15:41:41.025Z,24.69
2018-08-24T15:46:53.263Z,24.68
2018-08-24T15:49:20.233Z,24.67
2018-08-24T15:51:47.146Z,24.68
2018-08-24T15:54:14.037Z,24.73
2018-08-24T15:56:41.010Z,24.72
2018-08-24T15:59:07.915Z,24.74
2018-08-24T16:01:34.813Z,24.75
2018-08-24T16:04:01.709Z,24.74
2018-08-24T16:06:28.638Z,24.74
2018-08-24T16:08:55.540Z,24.76
2018-08-24T16:11:22.445Z,24.75
2018-08-24T16:13:49.341Z,24.75
2018-08-24T16:16:16.252Z,24.74
2018-08-24T16:18:43.184Z,24.73
2018-08-24T16:21:10.087Z,24.72
2018-08-24T16:23:37.030Z,24.70
2018-08-24T16:26:03.940Z,24.73
2018-08-24T16:28:30.858Z,24.72
2018-08-24T16:30:57.766Z,24.73
2018-08-24T16:33:24.677Z,24.73
2018-08-24T16:35:51.569Z,24.71
2018-08-24T16:38:18.467Z,24.74
2018-08-24T16:40:45.396Z,24.74
2018-08-24T16:43:12.432Z,24.72
2018-08-24T16:45:39.351Z,24.73
2018-08-24T16:48:06.298Z,24.72
2018-08-24T16:50:33.199Z,24.72
2018-08-24T16:53:00.104Z,24.71
2018-08-24T16:55:27.006Z,24.71
2018-08-24T16:57:54.516Z,24.71
2018-08-24T17:00:21.422Z,24.71
2018-08-24T17:02:48.317Z,24.73
2018-08-24T17:05:15.201Z,24.71
2018-08-24T17:07:42.097Z,24.71
2018-08-24T17:10:09.493Z,24.71
2018-08-24T17:12:36.444Z,24.71
2018-08-24T17:15:03.332Z,24.72
2018-08-24T17:17:30.238Z,24.73
2018-08-24T17:19:57.186Z,24.71
2018-08-24T17:22:24.099Z,24.71
2018-08-24T17:24:51.024Z,24.71
2018-08-24T17:27:17.923Z,24.71
2018-08-24T17:29:44.817Z,24.72
2018-08-24T17:32:11.715Z,24.72
2018-08-24T17:34:38.638Z,24.71
2018-08-24T17:37:05.573Z,24.71
2018-08-24T17:39:32.473Z,24.71
2018-08-24T17:41:59.396Z,24.73
2018-08-24T17:44:26.308Z,24.71
2018-08-24T17:46:53.196Z,24.71
2018-08-24T17:49:20.098Z,24.73
2018-08-24T17:51:47.037Z,24.72
2018-08-24T17:54:13.990Z,24.71
2018-08-24T17:56:40.866Z,24.72
2018-08-24T17:59:07.757Z,24.73
2018-08-24T18:01:34.660Z,24.73
2018-08-24T18:04:01.552Z,24.71
2018-08-24T18:06:28.445Z,24.71
2018-08-24T18:08:55.336Z,24.71
2018-08-24T18:11:22.237Z,24.71
2018-08-24T18:13:49.129Z,24.69
2018-08-24T18:16:16.046Z,24.70
2018-08-24T18:18:42.951Z,24.70
2018-08-24T18:21:10.188Z,24.70
2018-08-24T18:23:37.093Z,24.70
2018-08-24T18:26:03.985Z,24.69
2018-08-24T18:28:30.973Z,24.69
2018-08-24T18:30:57.882Z,24.69
2018-08-24T18:33:24.772Z,24.69
2018-08-24T18:35:51.692Z,24.69
2018-08-24T18:38:18.596Z,24.70
2018-08-24T18:40:45.497Z,24.70
2018-08-24T18:43:12.388Z,24.69
2018-08-24T18:45:39.288Z,24.69
2018-08-24T18:48:06.189Z,24.69
2018-08-24T18:50:33.142Z,24.68
2018-08-24T18:53:00.045Z,24.69
2018-08-24T18:55:26.935Z,24.69
2018-08-24T18:57:53.939Z,24.69
2018-08-24T19:00:20.790Z,24.69
2018-08-24T19:02:47.716Z,24.68
2018-08-24T19:05:14.641Z,24.68
2018-08-24T19:07:41.574Z,24.67
2018-08-24T19:10:08.460Z,24.68
2018-08-24T19:12:35.357Z,24.67
2018-08-24T19:15:02.250Z,24.68
2018-08-24T19:17:34.552Z,24.69
2018-08-24T19:20:06.691Z,24.68
2018-08-24T19:22:33.574Z,24.69
2018-08-24T19:25:00.476Z,24.67
2018-08-24T19:27:32.702Z,24.68
2018-08-24T19:30:04.897Z,24.68
2018-08-24T19:32:31.819Z,24.68
2018-08-24T19:34:58.741Z,24.68
2018-08-24T19:37:25.677Z,24.68
2018-08-24T19:39:57.930Z,24.67
2018-08-24T19:42:26.050Z,24.68
2018-08-24T19:44:53.269Z,24.67
2018-08-24T19:47:25.481Z,24.67
2018-08-24T19:49:52.373Z,24.67
2018-08-24T19:52:19.270Z,24.67
2018-08-24T19:54:46.175Z,24.68
2018-08-24T19:57:18.414Z,24.67
2018-08-24T19:59:45.345Z,24.67
2018-08-24T20:02:12.256Z,24.68
2018-08-24T20:04:39.156Z,24.67
2018-08-24T20:07:11.352Z,24.67
2018-08-24T20:09:43.554Z,24.67
2018-08-24T20:12:10.440Z,24.66
2018-08-24T20:14:42.798Z,24.67
2018-08-24T20:17:15.069Z,24.67
2018-08-24T20:19:41.967Z,24.66
2018-08-24T20:22:08.911Z,24.67
2018-08-24T20:24:36.055Z,24.68
2018-08-24T20:27:02.854Z,24.68
2018-08-24T20:29:29.766Z,24.66
2018-08-24T20:31:56.666Z,24.66
2018-08-24T20:34:23.560Z,24.66
2018-08-24T20:36:50.484Z,24.67
2018-08-24T20:39:17.389Z,24.67
2018-08-24T20:41:44.286Z,24.67
2018-08-24T20:44:11.192Z,24.66
2018-08-24T20:46:38.118Z,24.67
2018-08-24T20:49:05.067Z,24.66
2018-08-24T20:51:32.008Z,24.66
2018-08-24T20:53:58.912Z,24.66
2018-08-24T20:56:25.820Z,24.66
2018-08-24T20:58:52.758Z,24.66
2018-08-24T21:01:19.914Z,24.67
2018-08-24T21:03:46.822Z,24.66
2018-08-24T21:06:13.734Z,24.67
2018-08-24T21:08:40.621Z,24.66
2018-08-24T21:11:07.523Z,24.66
2018-08-24T21:13:34.452Z,24.66
2018-08-24T21:16:01.373Z,24.66
2018-08-24T21:18:28.314Z,24.66
2018-08-24T21:20:55.290Z,24.67
2018-08-24T21:23:22.195Z,24.66
2018-08-24T21:25:49.124Z,24.66
2018-08-24T21:28:16.053Z,24.67
2018-08-24T21:30:42.948Z,24.66
2018-08-24T21:33:09.856Z,24.66
2018-08-24T21:35:36.749Z,24.66
2018-08-24T21:38:03.668Z,24.66
2018-08-24T21:40:30.580Z,24.67
2018-08-24T21:42:57.497Z,24.66
2018-08-24T21:45:24.417Z,24.66
2018-08-24T21:47:51.306Z,24.66
2018-08-24T21:50:18.217Z,24.66
2018-08-24T21:52:45.139Z,24.65
2018-08-24T21:55:12.045Z,24.67
2018-08-24T21:57:38.982Z,24.65
2018-08-24T22:00:05.926Z,24.65
2018-08-24T22:02:32.849Z,24.65
2018-08-24T22:04:59.789Z,24.66
2018-08-24T22:07:26.697Z,24.67
2018-08-24T22:09:53.597Z,24.66
2018-08-24T22:12:20.510Z,24.66
2018-08-24T22:14:47.460Z,24.66
2018-08-24T22:17:14.361Z,24.66
2018-08-24T22:19:41.263Z,24.66
2018-08-24T22:22:08.188Z,24.66
2018-08-24T22:24:35.123Z,24.66
2018-08-24T22:27:02.044Z,24.66
2018-08-24T22:29:28.937Z,24.67
2018-08-24T22:31:55.858Z,24.66
2018-08-24T22:34:22.753Z,24.65
2018-08-24T22:36:49.697Z,24.66
2018-08-24T22:39:16.607Z,24.66
2018-08-24T22:41:43.509Z,24.65
2018-08-24T22:44:10.396Z,24.66
2018-08-24T22:46:37.307Z,24.67
2018-08-24T22:49:04.217Z,24.66
2018-08-24T22:51:31.134Z,24.66
2018-08-24T22:53:58.029Z,24.66
2018-08-24T22:56:24.935Z,24.66
2018-08-24T22:58:51.829Z,24.66
2018-08-24T23:01:18.725Z,24.66
2018-08-24T23:03:45.613Z,24.66
2018-08-24T23:06:12.517Z,24.66
2018-08-24T23:08:39.450Z,24.66
2018-08-24T23:11:06.350Z,24.65
2018-08-24T23:13:33.282Z,24.65
2018-08-24T23:16:00.188Z,24.65
2018-08-24T23:18:27.100Z,24.66
2018-08-24T23:20:54.001Z,24.65
2018-08-24T23:23:20.926Z,24.66
2018-08-24T23:25:47.829Z,24.66
2018-08-24T23:28:14.712Z,24.66
2018-08-24T23:30:41.619Z,24.66
2018-08-24T23:33:08.504Z,24.65
2018-08-24T23:35:35.445Z,24.66
2018-08-24T23:38:02.358Z,24.66
2018-08-24T23:40:29.251Z,24.65
2018-08-24T23:42:56.149Z,24.64
2018-08-24T23:45:23.045Z,24.66
2018-08-24T23:47:49.961Z,24.66
2018-08-24T23:50:16.877Z,24.65
2018-08-24T23:52:43.794Z,24.65
2018-08-24T23:55:10.680Z,24.65
2018-08-24T23:57:37.592Z,24.65
